sensor_id;sensor_type;location;lat;lon;timestamp;pressure;altitude;pressure_sealevel;temperature;humidity
61645;BME280;47553;52.428;13.382;2022-08-21T00:00:08;100997.81;;;19.21;100.00
61645;BME280;47553;52.428;13.382;2022-08-21T00:02:17;101000.63;;;19.10;100.00
61645;BME280;47553;52.428;13.382;2022-08-21T00:04:20;101000.28;;;19.04;100.00
61645;BME280;47553;52.428;13.382;2022-08-21T00:06:23;101004.50;;;19.17;100.00
61645;BME280;47553;52.428;13.382;2022-08-21T00:08:26;101003.34;;;19.10;100.00
61645;BME280;47553;52.428;13.382;2022-08-21T00:10:28;101006.03;;;19.10;100.00
61645;BME280;47553;52.428;13.382;2022-08-21T00:12:30;100991.06;;;19.06;100.00
61645;BME280;47553;52.428;13.382;2022-08-21T00:14:32;100998.06;;;19.09;100.00
61645;BME280;47553;52.428;13.382;2022-08-21T00:16:34;100987.19;;;18.99;100.00
61645;BME280;47553;52.428;13.382;2022-08-21T00:18:36;101002.56;;;18.98;100.00
61645;BME280;47553;52.428;13.382;2022-08-21T00:20:39;100986.34;;;18.98;100.00
61645;BME280;47553;52.428;13.382;2022-08-21T00:22:41;100987.78;;;19.03;100.00
61645;BME280;47553;52.428;13.382;2022-08-21T00:24:44;100969.19;;;18.79;100.00
61645;BME280;47553;52.428;13.382;2022-08-21T00:26:45;100983.50;;;19.00;100.00
61645;BME280;47553;52.428;13.382;2022-08-21T00:28:47;100983.50;;;19.00;100.00
61645;BME280;47553;52.428;13.382;2022-08-21T00:30:48;100986.03;;;18.92;100.00
61645;BME280;47553;52.428;13.382;2022-08-21T00:32:51;100997.41;;;18.95;100.00
61645;BME280;47553;52.428;13.382;2022-08-21T00:34:54;100992.28;;;18.92;100.00
61645;BME280;47553;52.428;13.382;2022-08-21T00:36:56;100999.72;;;19.00;100.00
61645;BME280;47553;52.428;13.382;2022-08-21T00:38:57;100993.88;;;18.95;100.00
61645;BME280;47553;52.428;13.382;2022-08-21T00:41:02;100987.59;;;18.94;100.00
61645;BME280;47553;52.428;13.382;2022-08-21T00:43:27;100989.13;;;18.87;100.00
61645;BME280;47553;52.428;13.382;2022-08-21T00:45:29;100999.44;;;19.03;100.00
61645;BME280;47553;52.428;13.382;2022-08-21T00:47:30;100992.09;;;19.15;100.00
61645;BME280;47553;52.428;13.382;2022-08-21T00:49:32;100994.13;;;19.22;100.00
61645;BME280;47553;52.428;13.382;2022-08-21T00:51:38;100991.13;;;19.25;100.00
61645;BME280;47553;52.428;13.382;2022-08-21T00:53:44;100988.41;;;19.16;100.00
61645;BME280;47553;52.428;13.382;2022-08-21T00:55:54;100996.38;;;19.17;100.00
61645;BME280;47553;52.428;13.382;2022-08-21T00:57:59;100995.16;;;19.00;100.00
61645;BME280;47553;52.428;13.382;2022-08-21T01:00:06;100984.31;;;18.91;100.00
61645;BME280;47553;52.428;13.382;2022-08-21T01:02:09;100986.00;;;18.82;100.00
61645;BME280;47553;52.428;13.382;2022-08-21T01:04:11;100996.34;;;18.77;100.00
61645;BME280;47553;52.428;13.382;2022-08-21T01:06:13;101003.06;;;18.83;100.00
61645;BME280;47553;52.428;13.382;2022-08-21T01:08:16;100997.66;;;18.83;100.00
61645;BME280;47553;52.428;13.382;2022-08-21T01:10:18;100988.28;;;18.87;100.00
61645;BME280;47553;52.428;13.382;2022-08-21T01:12:25;100991.34;;;18.73;100.00
61645;BME280;47553;52.428;13.382;2022-08-21T01:14:28;100987.84;;;18.82;100.00
61645;BME280;47553;52.428;13.382;2022-08-21T01:16:30;100995.94;;;18.82;100.00
61645;BME280;47553;52.428;13.382;2022-08-21T01:18:32;101003.09;;;18.92;100.00
61645;BME280;47553;52.428;13.382;2022-08-21T01:20:38;100994.56;;;18.97;100.00
61645;BME280;47553;52.428;13.382;2022-08-21T01:22:43;101006.22;;;18.88;100.00
61645;BME280;47553;52.428;13.382;2022-08-21T01:24:45;100999.44;;;19.03;100.00
61645;BME280;47553;52.428;13.382;2022-08-21T01:26:47;100993.94;;;19.14;100.00
61645;BME280;47553;52.428;13.382;2022-08-21T01:29:05;101000.25;;;18.94;100.00
61645;BME280;47553;52.428;13.382;2022-08-21T01:31:09;100990.72;;;18.90;100.00
61645;BME280;47553;52.428;13.382;2022-08-21T01:33:12;100993.31;;;19.01;100.00
61645;BME280;47553;52.428;13.382;2022-08-21T01:35:15;100990.31;;;18.94;100.00
61645;BME280;47553;52.428;13.382;2022-08-21T01:37:18;101002.78;;;18.86;100.00
61645;BME280;47553;52.428;13.382;2022-08-21T01:39:21;101003.47;;;18.78;100.00
61645;BME280;47553;52.428;13.382;2022-08-21T01:41:23;101007.56;;;18.73;100.00
61645;BME280;47553;52.428;13.382;2022-08-21T01:43:24;101001.56;;;18.69;100.00
61645;BME280;47553;52.428;13.382;2022-08-21T01:45:40;100997.31;;;18.66;100.00
61645;BME280;47553;52.428;13.382;2022-08-21T01:47:42;101005.03;;;18.81;100.00
61645;BME280;47553;52.428;13.382;2022-08-21T01:49:44;101004.84;;;19.03;100.00
61645;BME280;47553;52.428;13.382;2022-08-21T01:51:46;101010.53;;;19.00;100.00
61645;BME280;47553;52.428;13.382;2022-08-21T01:53:48;101008.16;;;18.76;100.00
61645;BME280;47553;52.428;13.382;2022-08-21T01:55:51;101002.56;;;18.68;100.00
61645;BME280;47553;52.428;13.382;2022-08-21T01:57:53;101010.66;;;18.68;100.00
61645;BME280;47553;52.428;13.382;2022-08-21T01:59:54;101007.38;;;18.64;100.00
61645;BME280;47553;52.428;13.382;2022-08-21T02:01:56;101017.75;;;18.59;100.00
61645;BME280;47553;52.428;13.382;2022-08-21T02:03:58;101012.13;;;18.51;100.00
61645;BME280;47553;52.428;13.382;2022-08-21T02:05:59;101007.97;;;18.47;100.00
61645;BME280;47553;52.428;13.382;2022-08-21T02:08:01;101007.47;;;18.53;100.00
61645;BME280;47553;52.428;13.382;2022-08-21T02:10:05;101005.41;;;18.66;100.00
61645;BME280;47553;52.428;13.382;2022-08-21T02:12:09;101001.81;;;18.56;100.00
61645;BME280;47553;52.428;13.382;2022-08-21T02:14:13;101002.72;;;18.46;100.00
61645;BME280;47553;52.428;13.382;2022-08-21T02:16:15;100998.38;;;18.54;100.00
61645;BME280;47553;52.428;13.382;2022-08-21T02:18:20;101001.13;;;18.43;100.00
61645;BME280;47553;52.428;13.382;2022-08-21T02:20:23;100996.59;;;18.44;100.00
61645;BME280;47553;52.428;13.382;2022-08-21T02:22:25;100999.47;;;18.31;100.00
61645;BME280;47553;52.428;13.382;2022-08-21T02:24:27;100996.16;;;18.27;100.00
61645;BME280;47553;52.428;13.382;2022-08-21T02:26:28;100997.75;;;18.30;100.00
61645;BME280;47553;52.428;13.382;2022-08-21T02:28:31;100997.44;;;18.44;100.00
61645;BME280;47553;52.428;13.382;2022-08-21T02:30:36;100992.56;;;18.59;100.00
61645;BME280;47553;52.428;13.382;2022-08-21T02:32:38;100998.97;;;18.58;100.00
61645;BME280;47553;52.428;13.382;2022-08-21T02:34:39;101004.97;;;18.61;100.00
61645;BME280;47553;52.428;13.382;2022-08-21T02:36:41;100990.72;;;18.59;100.00
61645;BME280;47553;52.428;13.382;2022-08-21T02:38:43;100991.34;;;18.73;100.00
61645;BME280;47553;52.428;13.382;2022-08-21T02:40:48;100993.44;;;18.59;100.00
61645;BME280;47553;52.428;13.382;2022-08-21T02:42:51;100995.41;;;18.57;100.00
61645;BME280;47553;52.428;13.382;2022-08-21T02:44:54;100997.16;;;18.47;100.00
61645;BME280;47553;52.428;13.382;2022-08-21T02:46:56;100990.78;;;18.69;100.00
61645;BME280;47553;52.428;13.382;2022-08-21T02:48:57;100996.25;;;18.58;100.00
61645;BME280;47553;52.428;13.382;2022-08-21T02:51:01;100996.50;;;18.76;100.00
61645;BME280;47553;52.428;13.382;2022-08-21T02:53:03;100995.13;;;18.60;98.10
61645;BME280;47553;52.428;13.382;2022-08-21T02:55:05;100999.63;;;18.81;99.34
61645;BME280;47553;52.428;13.382;2022-08-21T02:57:06;101000.34;;;18.83;99.68
61645;BME280;47553;52.428;13.382;2022-08-21T02:59:08;100993.50;;;18.79;97.42
61645;BME280;47553;52.428;13.382;2022-08-21T03:01:11;101001.00;;;18.65;98.13
61645;BME280;47553;52.428;13.382;2022-08-21T03:03:13;100989.41;;;18.33;100.00
61645;BME280;47553;52.428;13.382;2022-08-21T03:05:16;101005.09;;;18.39;100.00
61645;BME280;47553;52.428;13.382;2022-08-21T03:07:18;101003.88;;;18.32;100.00
61645;BME280;47553;52.428;13.382;2022-08-21T03:09:19;100995.97;;;18.19;100.00
61645;BME280;47553;52.428;13.382;2022-08-21T03:11:21;100999.53;;;18.20;100.00
61645;BME280;47553;52.428;13.382;2022-08-21T03:13:22;101000.53;;;18.19;100.00
61645;BME280;47553;52.428;13.382;2022-08-21T03:15:27;100997.56;;;18.22;100.00
61645;BME280;47553;52.428;13.382;2022-08-21T03:17:30;100996.38;;;18.15;99.96
61645;BME280;47553;52.428;13.382;2022-08-21T03:19:32;100992.88;;;18.03;100.00
61645;BME280;47553;52.428;13.382;2022-08-21T03:21:33;100991.25;;;18.12;100.00
61645;BME280;47553;52.428;13.382;2022-08-21T03:23:35;100993.94;;;18.12;100.00
61645;BME280;47553;52.428;13.382;2022-08-21T03:25:37;100995.72;;;18.01;100.00
61645;BME280;47553;52.428;13.382;2022-08-21T03:27:41;100996.22;;;17.95;100.00
61645;BME280;47553;52.428;13.382;2022-08-21T03:29:43;100994.66;;;17.93;99.34
61645;BME280;47553;52.428;13.382;2022-08-21T03:31:45;100994.84;;;17.80;100.00
61645;BME280;47553;52.428;13.382;2022-08-21T03:33:48;100990.25;;;17.92;100.00
61645;BME280;47553;52.428;13.382;2022-08-21T03:35:57;100994.91;;;17.90;100.00
61645;BME280;47553;52.428;13.382;2022-08-21T03:37:59;100999.59;;;17.88;100.00
61645;BME280;47553;52.428;13.382;2022-08-21T03:40:01;100996.75;;;17.89;100.00
61645;BME280;47553;52.428;13.382;2022-08-21T03:42:02;100998.03;;;18.06;98.86
61645;BME280;47553;52.428;13.382;2022-08-21T03:44:04;100993.59;;;17.84;99.95
61645;BME280;47553;52.428;13.382;2022-08-21T03:46:06;100997.53;;;17.80;100.00
61645;BME280;47553;52.428;13.382;2022-08-21T03:48:08;100991.63;;;17.86;99.45
61645;BME280;47553;52.428;13.382;2022-08-21T03:50:11;100999.75;;;17.75;100.00
61645;BME280;47553;52.428;13.382;2022-08-21T03:52:13;100992.56;;;17.64;100.00
61645;BME280;47553;52.428;13.382;2022-08-21T03:54:14;101004.22;;;17.65;100.00
61645;BME280;47553;52.428;13.382;2022-08-21T03:56:16;101002.00;;;17.59;100.00
61645;BME280;47553;52.428;13.382;2022-08-21T03:58:19;100998.56;;;17.46;100.00
61645;BME280;47553;52.428;13.382;2022-08-21T04:00:21;101001.41;;;17.44;100.00
61645;BME280;47553;52.428;13.382;2022-08-21T04:02:23;101005.56;;;17.48;100.00
61645;BME280;47553;52.428;13.382;2022-08-21T04:04:26;101006.19;;;17.40;100.00
61645;BME280;47553;52.428;13.382;2022-08-21T04:06:29;101003.59;;;17.50;100.00
61645;BME280;47553;52.428;13.382;2022-08-21T04:08:38;101004.69;;;17.48;100.00
61645;BME280;47553;52.428;13.382;2022-08-21T04:10:40;101008.41;;;17.35;100.00
61645;BME280;47553;52.428;13.382;2022-08-21T04:12:42;101014.06;;;17.32;100.00
61645;BME280;47553;52.428;13.382;2022-08-21T04:14:43;101019.19;;;17.35;100.00
61645;BME280;47553;52.428;13.382;2022-08-21T04:16:45;101024.84;;;17.32;100.00
61645;BME280;47553;52.428;13.382;2022-08-21T04:18:46;101025.09;;;17.29;100.00
61645;BME280;47553;52.428;13.382;2022-08-21T04:20:50;101020.91;;;17.36;99.24
61645;BME280;47553;52.428;13.382;2022-08-21T04:22:54;101025.34;;;17.26;100.00
61645;BME280;47553;52.428;13.382;2022-08-21T04:24:55;101017.25;;;17.26;100.00
61645;BME280;47553;52.428;13.382;2022-08-21T04:26:57;101010.63;;;17.30;99.79
61645;BME280;47553;52.428;13.382;2022-08-21T04:28:58;101012.59;;;17.28;98.95
61645;BME280;47553;52.428;13.382;2022-08-21T04:31:00;101009.78;;;17.30;100.00
61645;BME280;47553;52.428;13.382;2022-08-21T04:33:01;101010.91;;;17.16;100.00
61645;BME280;47553;52.428;13.382;2022-08-21T04:35:07;101009.88;;;17.39;98.10
61645;BME280;47553;52.428;13.382;2022-08-21T04:37:09;101012.81;;;17.36;99.56
61645;BME280;47553;52.428;13.382;2022-08-21T04:39:12;101014.81;;;17.23;99.79
61645;BME280;47553;52.428;13.382;2022-08-21T04:41:14;101018.97;;;17.27;100.00
61645;BME280;47553;52.428;13.382;2022-08-21T04:43:16;101015.97;;;17.53;99.44
61645;BME280;47553;52.428;13.382;2022-08-21T04:45:22;101018.69;;;17.64;98.56
61645;BME280;47553;52.428;13.382;2022-08-21T04:47:24;101023.56;;;17.59;98.56
61645;BME280;47553;52.428;13.382;2022-08-21T04:49:46;101020.88;;;17.59;97.50
61645;BME280;47553;52.428;13.382;2022-08-21T04:51:47;101026.88;;;17.51;98.20
61645;BME280;47553;52.428;13.382;2022-08-21T04:53:52;101021.00;;;17.46;97.83
61645;BME280;47553;52.428;13.382;2022-08-21T04:56:01;101028.38;;;17.44;98.40
61645;BME280;47553;52.428;13.382;2022-08-21T04:58:04;101025.28;;;17.60;96.72
61645;BME280;47553;52.428;13.382;2022-08-21T05:00:08;101019.41;;;17.43;97.84
61645;BME280;47553;52.428;13.382;2022-08-21T05:02:14;101018.19;;;17.48;98.31
61645;BME280;47553;52.428;13.382;2022-08-21T05:04:20;101018.31;;;17.46;97.51
61645;BME280;47553;52.428;13.382;2022-08-21T05:06:23;101023.31;;;17.51;97.21
61645;BME280;47553;52.428;13.382;2022-08-21T05:08:27;101020.41;;;17.42;98.04
61645;BME280;47553;52.428;13.382;2022-08-21T05:10:29;101033.38;;;17.49;99.04
61645;BME280;47553;52.428;13.382;2022-08-21T05:12:32;101028.22;;;17.57;98.30
61645;BME280;47553;52.428;13.382;2022-08-21T05:14:34;101025.41;;;17.58;98.31
61645;BME280;47553;52.428;13.382;2022-08-21T05:16:35;101035.84;;;17.63;97.98
61645;BME280;47553;52.428;13.382;2022-08-21T05:18:38;101033.00;;;17.53;99.27
61645;BME280;47553;52.428;13.382;2022-08-21T05:20:40;101032.13;;;17.53;98.61
61645;BME280;47553;52.428;13.382;2022-08-21T05:22:41;101032.00;;;17.54;99.56
61645;BME280;47553;52.428;13.382;2022-08-21T05:24:46;101035.09;;;17.61;98.99
61645;BME280;47553;52.428;13.382;2022-08-21T05:26:47;101038.56;;;17.63;99.09
61645;BME280;47553;52.428;13.382;2022-08-21T05:28:50;101038.78;;;17.49;99.78
61645;BME280;47553;52.428;13.382;2022-08-21T05:30:52;101036.94;;;17.49;100.00
61645;BME280;47553;52.428;13.382;2022-08-21T05:32:56;101041.22;;;17.52;100.00
61645;BME280;47553;52.428;13.382;2022-08-21T05:34:58;101041.97;;;17.42;100.00
61645;BME280;47553;52.428;13.382;2022-08-21T05:37:00;101047.72;;;17.49;100.00
61645;BME280;47553;52.428;13.382;2022-08-21T05:39:07;101050.63;;;17.57;99.74
61645;BME280;47553;52.428;13.382;2022-08-21T05:41:09;101049.56;;;17.60;99.40
61645;BME280;47553;52.428;13.382;2022-08-21T05:43:11;101049.56;;;17.60;99.52
61645;BME280;47553;52.428;13.382;2022-08-21T05:45:14;101046.59;;;17.52;99.74
61645;BME280;47553;52.428;13.382;2022-08-21T05:47:16;101050.63;;;17.57;99.83
61645;BME280;47553;52.428;13.382;2022-08-21T05:49:17;101050.41;;;17.60;99.66
61645;BME280;47553;52.428;13.382;2022-08-21T05:51:19;101051.50;;;17.58;97.24
61645;BME280;47553;52.428;13.382;2022-08-21T05:53:23;101053.72;;;17.53;97.94
61645;BME280;47553;52.428;13.382;2022-08-21T05:55:25;101047.72;;;17.49;100.00
61645;BME280;47553;52.428;13.382;2022-08-21T05:57:34;101050.66;;;17.46;100.00
61645;BME280;47553;52.428;13.382;2022-08-21T05:59:35;101050.53;;;17.70;98.59
61645;BME280;47553;52.428;13.382;2022-08-21T06:01:39;101049.34;;;17.63;99.63
61645;BME280;47553;52.428;13.382;2022-08-21T06:03:41;101054.47;;;17.66;99.26
61645;BME280;47553;52.428;13.382;2022-08-21T06:05:43;101044.16;;;17.60;99.59
61645;BME280;47553;52.428;13.382;2022-08-21T06:07:45;101047.84;;;17.59;97.86
61645;BME280;47553;52.428;13.382;2022-08-21T06:09:46;101059.03;;;17.65;99.64
61645;BME280;47553;52.428;13.382;2022-08-21T06:11:48;101052.16;;;17.61;99.58
61645;BME280;47553;52.428;13.382;2022-08-21T06:13:49;101051.06;;;17.64;100.00
61645;BME280;47553;52.428;13.382;2022-08-21T06:16:01;101049.66;;;17.81;99.53
61645;BME280;47553;52.428;13.382;2022-08-21T06:18:04;101048.16;;;17.88;97.05
61645;BME280;47553;52.428;13.382;2022-08-21T06:20:07;101052.94;;;17.84;97.79
61645;BME280;47553;52.428;13.382;2022-08-21T06:22:09;101053.88;;;17.94;97.84
61645;BME280;47553;52.428;13.382;2022-08-21T06:24:12;101056.38;;;17.86;96.99
61645;BME280;47553;52.428;13.382;2022-08-21T06:26:14;101054.16;;;17.91;97.60
61645;BME280;47553;52.428;13.382;2022-08-21T06:28:16;101053.63;;;17.97;95.74
61645;BME280;47553;52.428;13.382;2022-08-21T06:30:18;101066.13;;;17.98;96.12
61645;BME280;47553;52.428;13.382;2022-08-21T06:32:20;101069.03;;;18.07;95.32
61645;BME280;47553;52.428;13.382;2022-08-21T06:34:23;101068.00;;;18.19;93.02
61645;BME280;47553;52.428;13.382;2022-08-21T06:36:24;101059.44;;;18.14;94.68
61645;BME280;47553;52.428;13.382;2022-08-21T06:38:26;101059.31;;;18.15;94.74
61645;BME280;47553;52.428;13.382;2022-08-21T06:40:30;101059.78;;;18.20;94.66
61645;BME280;47553;52.428;13.382;2022-08-21T06:42:35;101062.88;;;18.16;95.94
61645;BME280;47553;52.428;13.382;2022-08-21T06:44:37;101063.13;;;18.13;95.32
61645;BME280;47553;52.428;13.382;2022-08-21T06:46:39;101062.53;;;18.41;94.50
61645;BME280;47553;52.428;13.382;2022-08-21T06:48:40;101068.59;;;18.54;91.53
61645;BME280;47553;52.428;13.382;2022-08-21T06:50:43;101067.81;;;18.63;91.03
61645;BME280;47553;52.428;13.382;2022-08-21T06:52:45;101065.50;;;18.59;91.69
61645;BME280;47553;52.428;13.382;2022-08-21T06:54:47;101059.50;;;18.55;92.81
61645;BME280;47553;52.428;13.382;2022-08-21T06:56:48;101060.53;;;18.85;90.64
61645;BME280;47553;52.428;13.382;2022-08-21T06:58:50;101065.41;;;18.91;88.93
61645;BME280;47553;52.428;13.382;2022-08-21T07:00:52;101054.59;;;18.91;89.58
61645;BME280;47553;52.428;13.382;2022-08-21T07:02:58;101061.88;;;19.00;88.76
61645;BME280;47553;52.428;13.382;2022-08-21T07:05:00;101061.28;;;19.17;89.15
61645;BME280;47553;52.428;13.382;2022-08-21T07:07:17;101039.81;;;18.95;85.86
61645;BME280;47553;52.428;13.382;2022-08-21T07:09:19;101044.50;;;19.23;87.95
61645;BME280;47553;52.428;13.382;2022-08-21T07:11:27;101051.03;;;19.21;86.95
61645;BME280;47553;52.428;13.382;2022-08-21T07:13:29;101049.63;;;19.26;85.03
61645;BME280;47553;52.428;13.382;2022-08-21T07:15:31;101051.00;;;19.11;83.83
61645;BME280;47553;52.428;13.382;2022-08-21T07:17:32;101042.22;;;19.28;83.62
61645;BME280;47553;52.428;13.382;2022-08-21T07:19:34;101050.78;;;19.34;82.78
61645;BME280;47553;52.428;13.382;2022-08-21T07:21:36;101051.22;;;19.39;79.62
61645;BME280;47553;52.428;13.382;2022-08-21T07:23:40;101058.28;;;19.60;78.82
61645;BME280;47553;52.428;13.382;2022-08-21T07:25:43;101049.06;;;19.33;81.46
61645;BME280;47553;52.428;13.382;2022-08-21T07:27:45;101047.31;;;19.62;80.74
61645;BME280;47553;52.428;13.382;2022-08-21T07:29:46;101048.00;;;19.45;80.22
61645;BME280;47553;52.428;13.382;2022-08-21T07:31:48;101048.13;;;19.43;76.81
61645;BME280;47553;52.428;13.382;2022-08-21T07:33:51;101037.69;;;19.39;79.98
61645;BME280;47553;52.428;13.382;2022-08-21T07:35:56;101044.59;;;19.52;77.40
61645;BME280;47553;52.428;13.382;2022-08-21T07:37:57;101045.19;;;19.56;77.26
61645;BME280;47553;52.428;13.382;2022-08-21T07:40:00;101045.19;;;19.75;77.35
61645;BME280;47553;52.428;13.382;2022-08-21T07:42:02;101045.25;;;19.94;77.12
61645;BME280;47553;52.428;13.382;2022-08-21T07:44:08;101038.63;;;19.68;75.01
61645;BME280;47553;52.428;13.382;2022-08-21T07:46:13;101048.50;;;19.88;75.35
61645;BME280;47553;52.428;13.382;2022-08-21T07:48:15;101048.38;;;20.09;75.04
61645;BME280;47553;52.428;13.382;2022-08-21T07:50:17;101049.38;;;20.18;74.52
61645;BME280;47553;52.428;13.382;2022-08-21T07:52:19;101046.94;;;19.96;73.38
61645;BME280;47553;52.428;13.382;2022-08-21T07:54:20;101049.66;;;20.15;73.45
61645;BME280;47553;52.428;13.382;2022-08-21T07:56:35;101043.38;;;20.14;72.30
61645;BME280;47553;52.428;13.382;2022-08-21T07:58:38;101046.97;;;20.24;71.27
61645;BME280;47553;52.428;13.382;2022-08-21T08:00:40;101041.25;;;20.28;71.74
61645;BME280;47553;52.428;13.382;2022-08-21T08:02:45;101047.66;;;20.36;73.68
61645;BME280;47553;52.428;13.382;2022-08-21T08:04:47;101046.94;;;20.34;71.55
61645;BME280;47553;52.428;13.382;2022-08-21T08:06:52;101044.66;;;20.39;70.36
61645;BME280;47553;52.428;13.382;2022-08-21T08:08:54;101041.53;;;20.34;70.15
61645;BME280;47553;52.428;13.382;2022-08-21T08:11:12;101036.94;;;20.44;71.04
61645;BME280;47553;52.428;13.382;2022-08-21T08:13:17;101032.66;;;20.51;71.62
61645;BME280;47553;52.428;13.382;2022-08-21T08:15:21;101041.63;;;20.71;70.12
61645;BME280;47553;52.428;13.382;2022-08-21T08:17:23;101034.31;;;20.81;68.94
61645;BME280;47553;52.428;13.382;2022-08-21T08:19:25;101032.28;;;20.93;68.54
61645;BME280;47553;52.428;13.382;2022-08-21T08:21:26;101028.91;;;21.18;66.54
61645;BME280;47553;52.428;13.382;2022-08-21T08:23:28;101033.16;;;21.31;65.99
61645;BME280;47553;52.428;13.382;2022-08-21T08:25:30;101038.44;;;21.23;64.31
61645;BME280;47553;52.428;13.382;2022-08-21T08:27:37;101041.94;;;21.05;61.49
61645;BME280;47553;52.428;13.382;2022-08-21T08:29:40;101040.41;;;20.93;62.96
61645;BME280;47553;52.428;13.382;2022-08-21T08:31:42;101057.16;;;20.79;62.32
61645;BME280;47553;52.428;13.382;2022-08-21T08:33:44;101051.78;;;20.60;62.81
61645;BME280;47553;52.428;13.382;2022-08-21T08:35:48;101047.78;;;20.64;62.98
61645;BME280;47553;52.428;13.382;2022-08-21T08:37:50;101050.34;;;20.65;64.18
61645;BME280;47553;52.428;13.382;2022-08-21T08:39:52;101048.78;;;20.63;65.22
61645;BME280;47553;52.428;13.382;2022-08-21T08:41:58;101042.88;;;20.77;64.38
61645;BME280;47553;52.428;13.382;2022-08-21T08:44:24;101045.72;;;20.85;63.73
61645;BME280;47553;52.428;13.382;2022-08-21T08:46:36;101045.13;;;20.91;62.76
61645;BME280;47553;52.428;13.382;2022-08-21T08:48:46;101050.41;;;20.93;61.95
61645;BME280;47553;52.428;13.382;2022-08-21T08:50:56;101042.13;;;20.94;59.57
61645;BME280;47553;52.428;13.382;2022-08-21T08:53:02;101037.41;;;20.96;61.96
61645;BME280;47553;52.428;13.382;2022-08-21T08:55:09;101032.56;;;20.90;61.25
61645;BME280;47553;52.428;13.382;2022-08-21T08:57:16;101039.75;;;20.81;62.42
61645;BME280;47553;52.428;13.382;2022-08-21T08:59:22;101028.31;;;20.87;63.47
61645;BME280;47553;52.428;13.382;2022-08-21T09:01:27;101023.38;;;21.01;63.96
61645;BME280;47553;52.428;13.382;2022-08-21T09:03:33;101007.31;;;20.89;62.33
61645;BME280;47553;52.428;13.382;2022-08-21T09:05:41;101021.84;;;20.98;62.80
61645;BME280;47553;52.428;13.382;2022-08-21T09:07:49;101019.66;;;21.11;63.42
61645;BME280;47553;52.428;13.382;2022-08-21T09:10:04;101016.84;;;21.03;59.50
61645;BME280;47553;52.428;13.382;2022-08-21T09:12:12;101025.34;;;21.18;59.48
61645;BME280;47553;52.428;13.382;2022-08-21T09:14:23;101026.44;;;21.25;60.96
61645;BME280;47553;52.428;13.382;2022-08-21T09:16:37;101023.88;;;21.24;58.16
61645;BME280;47553;52.428;13.382;2022-08-21T09:18:51;101024.06;;;21.12;57.49
61645;BME280;47553;52.428;13.382;2022-08-21T09:21:06;101029.19;;;21.15;56.59
61645;BME280;47553;52.428;13.382;2022-08-21T09:23:21;101032.00;;;21.24;56.57
61645;BME280;47553;52.428;13.382;2022-08-21T09:25:26;101029.19;;;21.15;57.78
61645;BME280;47553;52.428;13.382;2022-08-21T09:27:29;101027.41;;;21.34;58.73
61645;BME280;47553;52.428;13.382;2022-08-21T09:29:37;101030.69;;;21.37;58.12
61645;BME280;47553;52.428;13.382;2022-08-21T09:31:39;101028.44;;;21.33;59.01
61645;BME280;47553;52.428;13.382;2022-08-21T09:33:40;101031.53;;;21.38;59.98
61645;BME280;47553;52.428;13.382;2022-08-21T09:35:51;101035.34;;;21.45;59.39
61645;BME280;47553;52.428;13.382;2022-08-21T09:37:55;101032.81;;;21.61;60.30
61645;BME280;47553;52.428;13.382;2022-08-21T09:39:58;101033.91;;;21.68;58.38
61645;BME280;47553;52.428;13.382;2022-08-21T09:42:01;101029.47;;;21.49;56.56
61645;BME280;47553;52.428;13.382;2022-08-21T09:44:04;101027.50;;;21.42;55.70
61645;BME280;47553;52.428;13.382;2022-08-21T09:46:09;101027.13;;;21.37;56.84
61645;BME280;47553;52.428;13.382;2022-08-21T09:48:13;101025.88;;;21.31;56.83
61645;BME280;47553;52.428;13.382;2022-08-21T09:50:18;101018.66;;;21.40;55.86
61645;BME280;47553;52.428;13.382;2022-08-21T09:52:24;101023.78;;;21.43;54.73
61645;BME280;47553;52.428;13.382;2022-08-21T09:54:30;101025.03;;;21.48;55.92
61645;BME280;47553;52.428;13.382;2022-08-21T09:56:34;101027.81;;;21.39;57.10
61645;BME280;47553;52.428;13.382;2022-08-21T09:58:38;101029.78;;;21.64;58.34
61645;BME280;47553;52.428;13.382;2022-08-21T10:00:40;101028.47;;;21.68;56.60
61645;BME280;47553;52.428;13.382;2022-08-21T10:02:41;101029.69;;;21.56;55.18
61645;BME280;47553;52.428;13.382;2022-08-21T10:04:49;101023.47;;;21.91;55.66
61645;BME280;47553;52.428;13.382;2022-08-21T10:06:53;101021.09;;;22.06;56.25
61645;BME280;47553;52.428;13.382;2022-08-21T10:09:09;101021.53;;;22.19;53.18
61645;BME280;47553;52.428;13.382;2022-08-21T10:11:26;101029.22;;;22.06;51.14
61645;BME280;47553;52.428;13.382;2022-08-21T10:13:39;101025.25;;;22.18;51.53
61645;BME280;47553;52.428;13.382;2022-08-21T10:15:48;101025.63;;;22.23;52.11
61645;BME280;47553;52.428;13.382;2022-08-21T10:17:58;101028.03;;;22.26;54.05
61645;BME280;47553;52.428;13.382;2022-08-21T10:20:07;101022.66;;;22.34;50.86
61645;BME280;47553;52.428;13.382;2022-08-21T10:22:22;101018.56;;;22.30;48.52
61645;BME280;47553;52.428;13.382;2022-08-21T10:24:36;101024.19;;;22.11;48.92
61645;BME280;47553;52.428;13.382;2022-08-21T10:26:48;101019.94;;;22.34;48.22
61645;BME280;47553;52.428;13.382;2022-08-21T10:29:02;101019.75;;;22.54;47.13
61645;BME280;47553;52.428;13.382;2022-08-21T10:31:11;101028.22;;;22.51;45.58
61645;BME280;47553;52.428;13.382;2022-08-21T10:33:32;101031.91;;;22.67;44.76
61645;BME280;47553;52.428;13.382;2022-08-21T10:35:42;101027.63;;;22.39;45.73